sensor_id;sensor_type;location;lat;lon;timestamp;pressure;altitude;pressure_sealevel;temperature;humidity
47522;BME280;32291;52.010;4.446;2023-05-08T00:00:55;78861.34;;;-144.67;100.00
47522;BME280;32291;52.010;4.446;2023-05-08T00:01:57;78865.66;;;-144.67;100.00
47522;BME280;32291;52.010;4.446;2023-05-08T00:02:59;78872.06;;;-144.67;100.00
47522;BME280;32291;52.010;4.446;2023-05-08T00:04:01;78878.50;;;-144.67;100.00
47522;BME280;32291;52.010;4.446;2023-05-08T00:05:03;78882.78;;;-144.67;100.00
47522;BME280;32291;52.010;4.446;2023-05-08T00:06:05;78876.34;;;-144.67;100.00
47522;BME280;32291;52.010;4.446;2023-05-08T00:07:07;78878.50;;;-144.67;100.00
47522;BME280;32291;52.010;4.446;2023-05-08T00:08:09;78872.06;;;-144.67;100.00
47522;BME280;32291;52.010;4.446;2023-05-08T00:09:11;78867.78;;;-144.67;100.00
47522;BME280;32291;52.010;4.446;2023-05-08T00:10:13;78872.06;;;-144.67;100.00
47522;BME280;32291;52.010;4.446;2023-05-08T00:11:14;78874.22;;;-144.67;100.00
47522;BME280;32291;52.010;4.446;2023-05-08T00:12:16;78880.63;;;-144.67;100.00
47522;BME280;32291;52.010;4.446;2023-05-08T00:13:18;78880.63;;;-144.67;100.00
47522;BME280;32291;52.010;4.446;2023-05-08T00:14:20;78887.06;;;-144.67;100.00
47522;BME280;32291;52.010;4.446;2023-05-08T00:15:22;78891.34;;;-144.67;100.00
47522;BME280;32291;52.010;4.446;2023-05-08T00:16:23;78891.34;;;-144.67;100.00
47522;BME280;32291;52.010;4.446;2023-05-08T00:17:25;78893.47;;;-144.67;100.00
47522;BME280;32291;52.010;4.446;2023-05-08T00:18:27;78897.75;;;-144.67;100.00
47522;BME280;32291;52.010;4.446;2023-05-08T00:19:28;78902.03;;;-144.67;100.00
47522;BME280;32291;52.010;4.446;2023-05-08T00:20:30;78904.19;;;-144.67;100.00
47522;BME280;32291;52.010;4.446;2023-05-08T00:21:33;78908.47;;;-144.67;100.00
47522;BME280;32291;52.010;4.446;2023-05-08T00:22:34;78897.75;;;-144.67;100.00
47522;BME280;32291;52.010;4.446;2023-05-08T00:23:36;78904.19;;;-144.67;100.00
47522;BME280;32291;52.010;4.446;2023-05-08T00:24:38;78908.47;;;-144.67;100.00
47522;BME280;32291;52.010;4.446;2023-05-08T00:25:39;78904.19;;;-144.67;100.00
47522;BME280;32291;52.010;4.446;2023-05-08T00:26:41;78904.19;;;-144.67;100.00
47522;BME280;32291;52.010;4.446;2023-05-08T00:27:44;78908.47;;;-144.67;100.00
47522;BME280;32291;52.010;4.446;2023-05-08T00:28:46;78917.03;;;-144.67;100.00
47522;BME280;32291;52.010;4.446;2023-05-08T00:29:48;78914.91;;;-144.67;100.00
47522;BME280;32291;52.010;4.446;2023-05-08T00:30:50;78906.34;;;-144.67;100.00
47522;BME280;32291;52.010;4.446;2023-05-08T00:31:53;78906.34;;;-144.67;100.00
47522;BME280;32291;52.010;4.446;2023-05-08T00:32:54;78904.19;;;-144.67;100.00
47522;BME280;32291;52.010;4.446;2023-05-08T00:33:56;78904.19;;;-144.67;100.00
47522;BME280;32291;52.010;4.446;2023-05-08T00:34:57;78904.19;;;-144.67;100.00
47522;BME280;32291;52.010;4.446;2023-05-08T00:36:01;78904.19;;;-144.67;100.00
47522;BME280;32291;52.010;4.446;2023-05-08T00:37:03;78912.75;;;-144.67;100.00
47522;BME280;32291;52.010;4.446;2023-05-08T00:38:05;78914.91;;;-144.67;100.00
47522;BME280;32291;52.010;4.446;2023-05-08T00:39:06;78923.47;;;-144.67;100.00
47522;BME280;32291;52.010;4.446;2023-05-08T00:40:09;78932.03;;;-144.67;100.00
47522;BME280;32291;52.010;4.446;2023-05-08T00:41:11;78925.59;;;-144.67;100.00
47522;BME280;32291;52.010;4.446;2023-05-08T00:42:13;78923.47;;;-144.67;100.00
47522;BME280;32291;52.010;4.446;2023-05-08T00:43:15;78921.31;;;-144.67;100.00
47522;BME280;32291;52.010;4.446;2023-05-08T00:44:16;78914.91;;;-144.67;100.00
47522;BME280;32291;52.010;4.446;2023-05-08T00:45:18;78921.31;;;-144.67;100.00
47522;BME280;32291;52.010;4.446;2023-05-08T00:46:19;78929.88;;;-144.67;100.00
47522;BME280;32291;52.010;4.446;2023-05-08T00:47:21;78906.34;;;-144.67;100.00
47522;BME280;32291;52.010;4.446;2023-05-08T00:48:30;78908.47;;;-144.67;100.00
47522;BME280;32291;52.010;4.446;2023-05-08T00:49:32;78910.63;;;-144.67;100.00
47522;BME280;32291;52.010;4.446;2023-05-08T00:50:36;78908.47;;;-144.67;100.00
47522;BME280;32291;52.010;4.446;2023-05-08T00:51:41;78921.31;;;-144.67;100.00
47522;BME280;32291;52.010;4.446;2023-05-08T00:52:45;78914.91;;;-144.67;100.00
47522;BME280;32291;52.010;4.446;2023-05-08T00:53:47;78921.31;;;-144.67;100.00
47522;BME280;32291;52.010;4.446;2023-05-08T00:54:49;78925.59;;;-144.67;100.00
47522;BME280;32291;52.010;4.446;2023-05-08T00:55:51;78932.03;;;-144.67;100.00
47522;BME280;32291;52.010;4.446;2023-05-08T00:56:57;78925.59;;;-144.67;100.00
47522;BME280;32291;52.010;4.446;2023-05-08T00:58:00;78925.59;;;-144.67;100.00
47522;BME280;32291;52.010;4.446;2023-05-08T00:59:07;78929.88;;;-144.67;100.00
47522;BME280;32291;52.010;4.446;2023-05-08T01:00:10;78936.31;;;-144.67;100.00
47522;BME280;32291;52.010;4.446;2023-05-08T01:01:12;78938.44;;;-144.67;100.00
47522;BME280;32291;52.010;4.446;2023-05-08T01:02:15;78932.03;;;-144.67;100.00
47522;BME280;32291;52.010;4.446;2023-05-08T01:03:17;78932.03;;;-144.67;100.00
47522;BME280;32291;52.010;4.446;2023-05-08T01:04:23;78938.44;;;-144.67;100.00
47522;BME280;32291;52.010;4.446;2023-05-08T01:05:27;78942.72;;;-144.67;100.00
47522;BME280;32291;52.010;4.446;2023-05-08T01:06:29;78944.88;;;-144.67;100.00
47522;BME280;32291;52.010;4.446;2023-05-08T01:07:32;78942.72;;;-144.67;100.00
47522;BME280;32291;52.010;4.446;2023-05-08T01:08:34;78947.03;;;-144.67;100.00
47522;BME280;32291;52.010;4.446;2023-05-08T01:09:36;78936.31;;;-144.67;100.00
47522;BME280;32291;52.010;4.446;2023-05-08T01:14:10;78947.03;;;-144.67;100.00
47522;BME280;32291;52.010;4.446;2023-05-08T01:15:28;78947.03;;;-144.67;100.00
47522;BME280;32291;52.010;4.446;2023-05-08T01:17:11;78947.03;;;-144.67;100.00
47522;BME280;32291;52.010;4.446;2023-05-08T01:18:55;78955.59;;;-144.67;100.00
47522;BME280;32291;52.010;4.446;2023-05-08T01:21:46;78966.28;;;-144.67;100.00
47522;BME280;32291;52.010;4.446;2023-05-08T01:23:32;78966.28;;;-144.67;100.00
47522;BME280;32291;52.010;4.446;2023-05-08T01:32:22;78983.41;;;-144.67;100.00
47522;BME280;32291;52.010;4.446;2023-05-08T01:34:40;78989.84;;;-144.67;100.00
47522;BME280;32291;52.010;4.446;2023-05-08T01:35:51;78991.97;;;-144.67;100.00
47522;BME280;32291;52.010;4.446;2023-05-08T01:37:03;78996.25;;;-144.67;100.00
47522;BME280;32291;52.010;4.446;2023-05-08T01:39:46;78989.84;;;-144.67;100.00
47522;BME280;32291;52.010;4.446;2023-05-08T01:41:04;78998.41;;;-144.67;100.00
47522;BME280;32291;52.010;4.446;2023-05-08T01:45:35;79004.84;;;-144.67;100.00
47522;BME280;32291;52.010;4.446;2023-05-08T01:46:39;79002.69;;;-144.67;100.00
47522;BME280;32291;52.010;4.446;2023-05-08T01:47:43;79006.97;;;-144.67;100.00
47522;BME280;32291;52.010;4.446;2023-05-08T01:49:05;79006.97;;;-144.67;100.00
47522;BME280;32291;52.010;4.446;2023-05-08T01:50:18;79000.56;;;-144.67;100.00
47522;BME280;32291;52.010;4.446;2023-05-08T01:51:24;79006.97;;;-144.67;100.00
47522;BME280;32291;52.010;4.446;2023-05-08T01:52:39;79009.13;;;-144.67;100.00
47522;BME280;32291;52.010;4.446;2023-05-08T01:53:51;79015.53;;;-144.67;100.00
47522;BME280;32291;52.010;4.446;2023-05-08T01:55:02;79013.41;;;-144.67;100.00
47522;BME280;32291;52.010;4.446;2023-05-08T01:56:14;79017.69;;;-144.67;100.00
47522;BME280;32291;52.010;4.446;2023-05-08T01:57:18;79013.41;;;-144.67;100.00
47522;BME280;32291;52.010;4.446;2023-05-08T01:58:23;79011.25;;;-144.67;100.00
47522;BME280;32291;52.010;4.446;2023-05-08T01:59:27;79011.25;;;-144.67;100.00
47522;BME280;32291;52.010;4.446;2023-05-08T02:00:31;79011.25;;;-144.67;100.00
47522;BME280;32291;52.010;4.446;2023-05-08T02:01:33;79015.53;;;-144.67;100.00
47522;BME280;32291;52.010;4.446;2023-05-08T02:02:36;79019.81;;;-144.67;100.00
47522;BME280;32291;52.010;4.446;2023-05-08T02:03:42;79026.25;;;-144.67;100.00
47522;BME280;32291;52.010;4.446;2023-05-08T02:04:45;79019.81;;;-144.67;100.00
47522;BME280;32291;52.010;4.446;2023-05-08T02:05:49;79019.81;;;-144.67;100.00
47522;BME280;32291;52.010;4.446;2023-05-08T02:06:54;79015.53;;;-144.67;100.00
47522;BME280;32291;52.010;4.446;2023-05-08T02:07:58;79015.53;;;-144.67;100.00
47522;BME280;32291;52.010;4.446;2023-05-08T02:09:01;79019.81;;;-144.67;100.00
47522;BME280;32291;52.010;4.446;2023-05-08T02:10:05;79017.69;;;-144.67;100.00
47522;BME280;32291;52.010;4.446;2023-05-08T02:11:11;79017.69;;;-144.67;100.00
47522;BME280;32291;52.010;4.446;2023-05-08T02:12:16;79013.41;;;-144.67;100.00
47522;BME280;32291;52.010;4.446;2023-05-08T02:13:20;79015.53;;;-144.67;100.00
47522;BME280;32291;52.010;4.446;2023-05-08T02:14:23;79015.53;;;-144.67;100.00
47522;BME280;32291;52.010;4.446;2023-05-08T02:15:28;79013.41;;;-144.67;100.00
47522;BME280;32291;52.010;4.446;2023-05-08T02:16:32;79019.81;;;-144.67;100.00
47522;BME280;32291;52.010;4.446;2023-05-08T02:17:37;79041.25;;;-144.67;100.00
47522;BME280;32291;52.010;4.446;2023-05-08T02:18:48;79039.09;;;-144.67;100.00
47522;BME280;32291;52.010;4.446;2023-05-08T02:19:54;79034.81;;;-144.67;100.00
47522;BME280;32291;52.010;4.446;2023-05-08T02:20:59;79041.25;;;-144.67;100.00
47522;BME280;32291;52.010;4.446;2023-05-08T02:22:04;79036.97;;;-144.67;100.00
47522;BME280;32291;52.010;4.446;2023-05-08T02:23:08;79041.25;;;-144.67;100.00
47522;BME280;32291;52.010;4.446;2023-05-08T02:24:11;79041.25;;;-144.67;100.00
47522;BME280;32291;52.010;4.446;2023-05-08T02:25:15;79039.09;;;-144.67;100.00
47522;BME280;32291;52.010;4.446;2023-05-08T02:26:19;79041.25;;;-144.67;100.00
47522;BME280;32291;52.010;4.446;2023-05-08T02:27:27;79041.25;;;-144.67;100.00
47522;BME280;32291;52.010;4.446;2023-05-08T02:28:31;79036.97;;;-144.67;100.00
47522;BME280;32291;52.010;4.446;2023-05-08T02:29:35;79032.69;;;-144.67;100.00
47522;BME280;32291;52.010;4.446;2023-05-08T02:30:40;79036.97;;;-144.67;100.00
47522;BME280;32291;52.010;4.446;2023-05-08T02:31:44;79039.09;;;-144.67;100.00
47522;BME280;32291;52.010;4.446;2023-05-08T02:32:48;79047.66;;;-144.67;100.00
47522;BME280;32291;52.010;4.446;2023-05-08T02:33:51;79047.66;;;-144.67;100.00
47522;BME280;32291;52.010;4.446;2023-05-08T02:34:55;79047.66;;;-144.67;100.00
47522;BME280;32291;52.010;4.446;2023-05-08T02:35:58;79049.81;;;-144.67;100.00
47522;BME280;32291;52.010;4.446;2023-05-08T02:37:02;79049.81;;;-144.67;100.00
47522;BME280;32291;52.010;4.446;2023-05-08T02:38:06;79058.38;;;-144.67;100.00
47522;BME280;32291;52.010;4.446;2023-05-08T02:39:13;79058.38;;;-144.67;100.00
47522;BME280;32291;52.010;4.446;2023-05-08T02:40:16;79054.09;;;-144.67;100.00
47522;BME280;32291;52.010;4.446;2023-05-08T02:41:20;79051.94;;;-144.67;100.00
47522;BME280;32291;52.010;4.446;2023-05-08T02:42:23;79060.50;;;-144.67;100.00
47522;BME280;32291;52.010;4.446;2023-05-08T02:43:26;79056.22;;;-144.67;100.00
47522;BME280;32291;52.010;4.446;2023-05-08T02:44:29;79058.38;;;-144.67;100.00
47522;BME280;32291;52.010;4.446;2023-05-08T02:46:00;79058.38;;;-144.67;100.00
47522;BME280;32291;52.010;4.446;2023-05-08T02:47:21;79054.09;;;-144.67;100.00
47522;BME280;32291;52.010;4.446;2023-05-08T02:48:40;79049.81;;;-144.67;100.00
47522;BME280;32291;52.010;4.446;2023-05-08T02:50:04;79047.66;;;-144.67;100.00
47522;BME280;32291;52.010;4.446;2023-05-08T02:51:21;79045.53;;;-144.67;100.00
47522;BME280;32291;52.010;4.446;2023-05-08T02:52:31;79041.25;;;-144.67;100.00
47522;BME280;32291;52.010;4.446;2023-05-08T02:53:41;79041.25;;;-144.67;100.00
47522;BME280;32291;52.010;4.446;2023-05-08T02:57:05;79026.25;;;-144.67;100.00
47522;BME280;32291;52.010;4.446;2023-05-08T02:58:19;79024.09;;;-144.67;100.00
47522;BME280;32291;52.010;4.446;2023-05-08T02:59:34;79017.69;;;-144.67;100.00
47522;BME280;32291;52.010;4.446;2023-05-08T03:01:03;78998.41;;;-144.67;100.00
47522;BME280;32291;52.010;4.446;2023-05-08T03:02:23;78994.13;;;-144.67;100.00
47522;BME280;32291;52.010;4.446;2023-05-08T03:03:45;78985.56;;;-144.67;100.00
47522;BME280;32291;52.010;4.446;2023-05-08T03:05:02;78987.69;;;-144.67;100.00
47522;BME280;32291;52.010;4.446;2023-05-08T03:06:13;78981.28;;;-144.67;100.00
47522;BME280;32291;52.010;4.446;2023-05-08T03:07:22;78972.72;;;-144.67;100.00
47522;BME280;32291;52.010;4.446;2023-05-08T03:08:32;78966.28;;;-144.67;100.00
47522;BME280;32291;52.010;4.446;2023-05-08T03:09:46;78959.88;;;-144.67;100.00
47522;BME280;32291;52.010;4.446;2023-05-08T03:10:53;78959.88;;;-144.67;100.00
47522;BME280;32291;52.010;4.446;2023-05-08T03:12:10;78957.72;;;-144.67;100.00
47522;BME280;32291;52.010;4.446;2023-05-08T03:13:15;78955.59;;;-144.67;100.00
47522;BME280;32291;52.010;4.446;2023-05-08T03:14:23;78951.31;;;-144.67;100.00
47522;BME280;32291;52.010;4.446;2023-05-08T03:15:41;78942.72;;;-144.67;100.00
47522;BME280;32291;52.010;4.446;2023-05-08T03:16:46;78942.72;;;-144.67;100.00
47522;BME280;32291;52.010;4.446;2023-05-08T03:17:56;78938.44;;;-144.67;100.00
47522;BME280;32291;52.010;4.446;2023-05-08T03:19:04;78938.44;;;-144.67;100.00
47522;BME280;32291;52.010;4.446;2023-05-08T03:20:11;78934.16;;;-144.67;100.00
47522;BME280;32291;52.010;4.446;2023-05-08T03:21:19;78934.16;;;-144.67;100.00
47522;BME280;32291;52.010;4.446;2023-05-08T03:22:22;78929.88;;;-144.67;100.00
47522;BME280;32291;52.010;4.446;2023-05-08T03:23:28;78934.16;;;-144.67;100.00
47522;BME280;32291;52.010;4.446;2023-05-08T03:24:34;78929.88;;;-144.67;100.00
47522;BME280;32291;52.010;4.446;2023-05-08T03:25:40;78934.16;;;-144.67;100.00
47522;BME280;32291;52.010;4.446;2023-05-08T03:26:44;78917.03;;;-144.67;100.00
47522;BME280;32291;52.010;4.446;2023-05-08T03:27:49;78914.91;;;-144.67;100.00
47522;BME280;32291;52.010;4.446;2023-05-08T03:28:55;78904.19;;;-144.67;100.00
47522;BME280;32291;52.010;4.446;2023-05-08T03:29:58;78912.75;;;-144.67;100.00
47522;BME280;32291;52.010;4.446;2023-05-08T03:31:05;78917.03;;;-144.67;100.00
47522;BME280;32291;52.010;4.446;2023-05-08T03:32:08;78925.59;;;-144.67;100.00
47522;BME280;32291;52.010;4.446;2023-05-08T03:33:13;78910.63;;;-144.67;100.00
47522;BME280;32291;52.010;4.446;2023-05-08T03:34:16;78906.34;;;-144.67;100.00
47522;BME280;32291;52.010;4.446;2023-05-08T03:35:21;78906.34;;;-144.67;100.00
47522;BME280;32291;52.010;4.446;2023-05-08T03:36:25;78910.63;;;-144.67;100.00
47522;BME280;32291;52.010;4.446;2023-05-08T03:37:27;78908.47;;;-144.67;100.00
47522;BME280;32291;52.010;4.446;2023-05-08T03:38:30;78904.19;;;-144.67;100.00
47522;BME280;32291;52.010;4.446;2023-05-08T03:39:32;78904.19;;;-144.67;100.00
47522;BME280;32291;52.010;4.446;2023-05-08T03:40:35;78904.19;;;-144.67;100.00
47522;BME280;32291;52.010;4.446;2023-05-08T03:41:38;78902.03;;;-144.67;100.00
47522;BME280;32291;52.010;4.446;2023-05-08T03:42:42;78897.75;;;-144.67;100.00
47522;BME280;32291;52.010;4.446;2023-05-08T03:43:45;78902.03;;;-144.67;100.00
47522;BME280;32291;52.010;4.446;2023-05-08T03:44:52;78902.03;;;-144.67;100.00
47522;BME280;32291;52.010;4.446;2023-05-08T03:45:55;78902.03;;;-144.67;100.00
47522;BME280;32291;52.010;4.446;2023-05-08T03:46:59;78887.06;;;-144.67;100.00
47522;BME280;32291;52.010;4.446;2023-05-08T03:48:07;78891.34;;;-144.67;100.00
47522;BME280;32291;52.010;4.446;2023-05-08T03:49:11;78882.78;;;-144.67;100.00
47522;BME280;32291;52.010;4.446;2023-05-08T03:50:13;78891.34;;;-144.67;100.00
47522;BME280;32291;52.010;4.446;2023-05-08T03:51:16;78897.75;;;-144.67;100.00
47522;BME280;32291;52.010;4.446;2023-05-08T03:52:19;78891.34;;;-144.67;100.00
47522;BME280;32291;52.010;4.446;2023-05-08T03:53:21;78891.34;;;-144.67;100.00
47522;BME280;32291;52.010;4.446;2023-05-08T03:54:22;78891.34;;;-144.67;100.00
47522;BME280;32291;52.010;4.446;2023-05-08T03:55:26;78887.06;;;-144.67;100.00
47522;BME280;32291;52.010;4.446;2023-05-08T03:56:27;78887.06;;;-144.67;100.00
47522;BME280;32291;52.010;4.446;2023-05-08T03:57:56;78833.53;;;-144.67;100.00
47522;BME280;32291;52.010;4.446;2023-05-08T03:59:15;78820.69;;;-144.67;100.00
47522;BME280;32291;52.010;4.446;2023-05-08T04:01:54;78818.53;;;-144.67;100.00
47522;BME280;32291;52.010;4.446;2023-05-08T04:03:22;78809.97;;;-144.67;100.00
47522;BME280;32291;52.010;4.446;2023-05-08T04:05:49;78814.25;;;-144.67;100.00
47522;BME280;32291;52.010;4.446;2023-05-08T04:07:37;78814.25;;;-144.67;100.00
47522;BME280;32291;52.010;4.446;2023-05-08T04:08:48;78814.25;;;-144.67;100.00
47522;BME280;32291;52.010;4.446;2023-05-08T04:11:31;78820.69;;;-144.67;100.00
47522;BME280;32291;52.010;4.446;2023-05-08T04:12:53;78818.53;;;-144.67;100.00
47522;BME280;32291;52.010;4.446;2023-05-08T04:14:03;78814.25;;;-144.67;100.00
47522;BME280;32291;52.010;4.446;2023-05-08T04:15:25;78818.53;;;-144.67;100.00
47522;BME280;32291;52.010;4.446;2023-05-08T04:16:36;78818.53;;;-144.67;100.00
47522;BME280;32291;52.010;4.446;2023-05-08T04:17:44;78827.09;;;-144.67;100.00
47522;BME280;32291;52.010;4.446;2023-05-08T04:18:49;78827.09;;;-144.67;100.00
47522;BME280;32291;52.010;4.446;2023-05-08T04:20:02;78824.97;;;-144.67;100.00
47522;BME280;32291;52.010;4.446;2023-05-08T04:21:10;78829.25;;;-144.67;100.00
47522;BME280;32291;52.010;4.446;2023-05-08T04:22:19;78835.66;;;-144.67;100.00
47522;BME280;32291;52.010;4.446;2023-05-08T04:23:24;78831.38;;;-144.67;100.00
47522;BME280;32291;52.010;4.446;2023-05-08T04:24:29;78837.81;;;-144.67;100.00
47522;BME280;32291;52.010;4.446;2023-05-08T04:25:36;78839.94;;;-144.67;100.00
47522;BME280;32291;52.010;4.446;2023-05-08T04:26:41;78835.66;;;-144.67;100.00
47522;BME280;32291;52.010;4.446;2023-05-08T04:27:45;78852.78;;;-144.67;100.00
47522;BME280;32291;52.010;4.446;2023-05-08T04:28:47;78844.22;;;-144.67;100.00
47522;BME280;32291;52.010;4.446;2023-05-08T04:29:49;78837.81;;;-144.67;100.00
47522;BME280;32291;52.010;4.446;2023-05-08T04:30:54;78844.22;;;-144.67;100.00
47522;BME280;32291;52.010;4.446;2023-05-08T04:31:58;78844.22;;;-144.67;100.00
47522;BME280;32291;52.010;4.446;2023-05-08T04:33:03;78848.50;;;-144.67;100.00
47522;BME280;32291;52.010;4.446;2023-05-08T04:34:07;78857.06;;;-144.67;100.00
47522;BME280;32291;52.010;4.446;2023-05-08T04:35:10;78852.78;;;-144.67;100.00
47522;BME280;32291;52.010;4.446;2023-05-08T04:36:13;78857.06;;;-144.67;100.00
47522;BME280;32291;52.010;4.446;2023-05-08T04:37:26;78861.34;;;-144.67;100.00
47522;BME280;32291;52.010;4.446;2023-05-08T04:38:28;78861.34;;;-144.67;100.00
47522;BME280;32291;52.010;4.446;2023-05-08T04:39:30;78861.34;;;-144.67;100.00
47522;BME280;32291;52.010;4.446;2023-05-08T04:40:32;78861.34;;;-144.67;100.00
47522;BME280;32291;52.010;4.446;2023-05-08T04:41:34;78867.78;;;-144.67;100.00
47522;BME280;32291;52.010;4.446;2023-05-08T04:42:35;78857.06;;;-144.67;100.00
47522;BME280;32291;52.010;4.446;2023-05-08T04:43:38;78846.38;;;-144.67;100.00
47522;BME280;32291;52.010;4.446;2023-05-08T04:44:40;78848.50;;;-144.67;100.00
47522;BME280;32291;52.010;4.446;2023-05-08T04:45:42;78848.50;;;-144.67;100.00
47522;BME280;32291;52.010;4.446;2023-05-08T04:46:44;78848.50;;;-144.67;100.00
47522;BME280;32291;52.010;4.446;2023-05-08T04:47:45;78852.78;;;-144.67;100.00
47522;BME280;32291;52.010;4.446;2023-05-08T04:48:47;78848.50;;;-144.67;100.00
47522;BME280;32291;52.010;4.446;2023-05-08T04:49:49;78852.78;;;-144.67;100.00
47522;BME280;32291;52.010;4.446;2023-05-08T04:50:51;78852.78;;;-144.67;100.00
47522;BME280;32291;52.010;4.446;2023-05-08T04:51:53;78850.66;;;-144.67;100.00
47522;BME280;32291;52.010;4.446;2023-05-08T04:52:55;78844.22;;;-144.67;100.00
47522;BME280;32291;52.010;4.446;2023-05-08T04:53:57;78842.09;;;-144.67;100.00
47522;BME280;32291;52.010;4.446;2023-05-08T04:54:59;78833.53;;;-144.67;100.00
47522;BME280;32291;52.010;4.446;2023-05-08T04:56:00;78835.66;;;-144.67;100.00
47522;BME280;32291;52.010;4.446;2023-05-08T04:57:02;78824.97;;;-144.67;100.00
47522;BME280;32291;52.010;4.446;2023-05-08T04:58:04;78822.81;;;-144.67;100.00
47522;BME280;32291;52.010;4.446;2023-05-08T04:59:06;78818.53;;;-144.67;100.00
47522;BME280;32291;52.010;4.446;2023-05-08T05:00:09;78822.81;;;-144.67;100.00
47522;BME280;32291;52.010;4.446;2023-05-08T05:01:10;78822.81;;;-144.67;100.00
47522;BME280;32291;52.010;4.446;2023-05-08T05:02:12;78818.53;;;-144.67;100.00
47522;BME280;32291;52.010;4.446;2023-05-08T05:03:14;78818.53;;;-144.67;100.00
47522;BME280;32291;52.010;4.446;2023-05-08T05:04:16;78814.25;;;-144.67;100.00
47522;BME280;32291;52.010;4.446;2023-05-08T05:05:18;78814.25;;;-144.67;100.00
47522;BME280;32291;52.010;4.446;2023-05-08T05:06:20;78809.97;;;-144.67;100.00
47522;BME280;32291;52.010;4.446;2023-05-08T05:07:22;78807.81;;;-144.67;100.00
47522;BME280;32291;52.010;4.446;2023-05-08T05:08:24;78797.13;;;-144.67;100.00
47522;BME280;32291;52.010;4.446;2023-05-08T05:09:26;78797.13;;;-144.67;100.00
47522;BME280;32291;52.010;4.446;2023-05-08T05:10:28;78792.84;;;-144.67;100.00
47522;BME280;32291;52.010;4.446;2023-05-08T05:11:29;78792.84;;;-144.67;100.00
47522;BME280;32291;52.010;4.446;2023-05-08T05:12:31;78805.69;;;-144.67;100.00
47522;BME280;32291;52.010;4.446;2023-05-08T05:13:32;78792.84;;;-144.67;100.00
47522;BME280;32291;52.010;4.446;2023-05-08T05:14:35;78794.97;;;-144.67;100.00
47522;BME280;32291;52.010;4.446;2023-05-08T05:15:36;78797.13;;;-144.67;100.00
47522;BME280;32291;52.010;4.446;2023-05-08T05:16:38;78792.84;;;-144.67;100.00
47522;BME280;32291;52.010;4.446;2023-05-08T05:17:39;78797.13;;;-144.67;100.00
47522;BME280;32291;52.010;4.446;2023-05-08T05:18:41;78790.69;;;-144.67;100.00
47522;BME280;32291;52.010;4.446;2023-05-08T05:19:43;78788.56;;;-144.67;100.00
47522;BME280;32291;52.010;4.446;2023-05-08T05:20:44;78788.56;;;-144.67;100.00
47522;BME280;32291;52.010;4.446;2023-05-08T05:21:46;78782.13;;;-144.67;100.00
47522;BME280;32291;52.010;4.446;2023-05-08T05:22:48;78773.56;;;-144.67;100.00
47522;BME280;32291;52.010;4.446;2023-05-08T05:23:49;78767.16;;;-144.67;100.00
47522;BME280;32291;52.010;4.446;2023-05-08T05:24:51;78762.84;;;-144.67;100.00
47522;BME280;32291;52.010;4.446;2023-05-08T05:25:53;78760.72;;;-144.67;100.00
47522;BME280;32291;52.010;4.446;2023-05-08T05:26:54;78767.16;;;-144.67;100.00
47522;BME280;32291;52.010;4.446;2023-05-08T05:27:56;78767.16;;;-144.67;100.00
47522;BME280;32291;52.010;4.446;2023-05-08T05:28:57;78762.84;;;-144.67;100.00
47522;BME280;32291;52.010;4.446;2023-05-08T05:29:59;78765.00;;;-144.67;100.00
47522;BME280;32291;52.010;4.446;2023-05-08T05:31:01;78765.00;;;-144.67;100.00
47522;BME280;32291;52.010;4.446;2023-05-08T05:32:03;78754.28;;;-144.67;100.00
47522;BME280;32291;52.010;4.446;2023-05-08T05:33:07;78752.16;;;-144.67;100.00
47522;BME280;32291;52.010;4.446;2023-05-08T05:34:08;78747.88;;;-144.67;100.00
47522;BME280;32291;52.010;4.446;2023-05-08T05:35:13;78747.88;;;-144.67;100.00
47522;BME280;32291;52.010;4.446;2023-05-08T05:36:15;78752.16;;;-144.67;100.00
47522;BME280;32291;52.010;4.446;2023-05-08T05:37:17;78750.00;;;-144.67;100.00
47522;BME280;32291;52.010;4.446;2023-05-08T05:38:19;78737.16;;;-144.67;100.00
47522;BME280;32291;52.010;4.446;2023-05-08T05:39:21;78715.75;;;-144.67;100.00
47522;BME280;32291;52.010;4.446;2023-05-08T05:40:22;78711.47;;;-144.67;100.00
47522;BME280;32291;52.010;4.446;2023-05-08T05:41:24;78715.75;;;-144.67;100.00
47522;BME280;32291;52.010;4.446;2023-05-08T05:42:26;78711.47;;;-144.67;100.00
47522;BME280;32291;52.010;4.446;2023-05-08T05:43:27;78709.31;;;-144.67;100.00
47522;BME280;32291;52.010;4.446;2023-05-08T05:44:29;78707.19;;;-144.67;100.00
47522;BME280;32291;52.010;4.446;2023-05-08T05:45:31;78711.47;;;-144.67;100.00
47522;BME280;32291;52.010;4.446;2023-05-08T05:46:32;78707.19;;;-144.67;100.00
47522;BME280;32291;52.010;4.446;2023-05-08T05:47:34;78707.19;;;-144.67;100.00
47522;BME280;32291;52.010;4.446;2023-05-08T05:48:36;78702.91;;;-144.67;100.00
47522;BME280;32291;52.010;4.446;2023-05-08T05:49:38;78698.63;;;-144.67;100.00
47522;BME280;32291;52.010;4.446;2023-05-08T05:50:43;78702.91;;;-144.67;100.00
47522;BME280;32291;52.010;4.446;2023-05-08T05:51:44;78696.47;;;-144.67;100.00
47522;BME280;32291;52.010;4.446;2023-05-08T05:52:46;78711.47;;;-144.67;100.00
47522;BME280;32291;52.010;4.446;2023-05-08T05:53:48;78692.19;;;-144.67;100.00
47522;BME280;32291;52.010;4.446;2023-05-08T05:54:49;78679.34;;;-144.67;100.00
47522;BME280;32291;52.010;4.446;2023-05-08T05:55:51;78690.06;;;-144.67;100.00
47522;BME280;32291;52.010;4.446;2023-05-08T05:56:53;78683.63;;;-144.67;100.00
47522;BME280;32291;52.010;4.446;2023-05-08T05:57:55;78664.38;;;-144.67;100.00
47522;BME280;32291;52.010;4.446;2023-05-08T05:58:57;78660.09;;;-144.67;100.00
47522;BME280;32291;52.010;4.446;2023-05-08T05:59:59;78655.81;;;-144.67;100.00